x

South Hatteras - 225 South Of Cape Hatteras (41002) Wave Buoy

11:50 - Mon 25th Jul 2016 All times are EDT. -4 hours from GMT.

  • Sig Wave height 2.0ft
  • Swell Direction
  • Peak Period 8s
  • Average Period 4s
  • Wind
    7mph, 9mph gusts
  • Sea Temp 84°f
  • Air Temp 83°f
  • Sea Pressure 1019.5mb
  • South Hatteras - 225 South Of Cape Hatteras
  • South Hatteras - 225 South Of Cape Hatteras

More Historic Weather Station data

Upgrade to MSW Pro to gain access to the past 30 days of data for over 8000 Wavebouys and Weather Stations around the globe.

Join Pro

Comparision Forecast

View Surf forecast
   
lun. 07/25 11:50 2ft 8s 4s 7 9 mph 1019.5mb 84f 83f
10:50 2ft 9s 5s 11 16 mph 1019.2mb 85f 84f
9:50 2ft 8s 4s 11 13 mph 1018.9mb 85f 84f
8:50 2ft 8s 4s 13 16 mph 1018.4mb 85f 84f
7:50 2ft 8s 4s 11 13 mph 1018.3mb 85f 84f
6:50 2ft 8s 5s 13 16 mph 1018.2mb 85f 84f
5:50 2ft 8s 5s 11 13 mph 1018.2mb 85f 84f
4:50 2ft 8s 5s 9 11 mph 1018.6mb 85f 84f
3:50 2ft 8s 5s 9 11 mph 1019.3mb 85f 83f
2:50 2ft 8s 5s 9 11 mph 1019.7mb 85f 83f
1:50 2ft 8s 5s 11 13 mph 1020.1mb 85f 83f
12:50 2ft 8s 5s 13 18 mph 1020.3mb 85f 82f
11:50 2ft 8s 6s 4 7 mph 1020.2mb 85f 83f
10:50 2ft 8s 5s 4 7 mph 1020.4mb 85f 83f
9:50 2ft 8s 5s 4 7 mph 1020.2mb 84f 83f
8:50 2ft 9s 5s 9 11 mph 1020.2mb 84f 83f
7:50 2.5ft 9s 6s 9 11 mph 1019.9mb 84f 84f
6:50 2ft 8s 6s 11 13 mph 1019.4mb 84f 83f
5:50 2ft 8s 6s 11 13 mph 1018.9mb 84f 83f
4:50 2ft 9s 6s 7 9 mph 1018.9mb 84f 83f
3:50 2ft 8s 6s 9 11 mph 1018.7mb 84f 83f
2:50 2ft 8s 6s 9 11 mph 1018.8mb 84f 84f
1:50 2ft 8s 6s 9 11 mph 1018.9mb 84f 84f
12:50 2.5ft 9s 6s 4 7 mph 1019.2mb 84f 84f
dim. 07/24 11:50 2.5ft 9s 6s 4 7 mph 1019.2mb 85f 84f
10:50 2ft 9s 6s 2 4 mph 1019.5mb 85f 84f
9:50 2ft 9s 6s 2 4 mph 1019.2mb 85f 84f
8:50 2ft 8s 6s 2 4 mph 1018.7mb 85f 84f
7:50 2.5ft 8s 6s 4 7 mph 1018.3mb 85f 84f
6:50 2.5ft 8s 6s 4 7 mph 1018mb 86f 84f
5:50 2ft 8s 6s 4 7 mph 1018mb 86f 84f
4:50 2ft 8s 6s 7
mph
1017.9mb 87f 84f
3:50 2ft 9s 6s 4
mph
1018.3mb 87f 84f
2:50 2.5ft 8s 6s 4 7 mph 1018.4mb 86f 84f
1:50 2ft 8s 6s 4 7 mph 1018.8mb 86f 83f
12:50 2.5ft 8s 6s 4 7 mph 1018.8mb 87f 83f
11:50 2ft 9s 6s  -  2 mph 1019.1mb 86f 84f
10:50 2.5ft 8s 7s 2 4 mph 1018.7mb 85f 83f
9:50 2ft 9s 6s 2 4 mph 1018.5mb 85f 83f
8:50 2ft 9s 6s 2 4 mph 1018.3mb 84f 83f
7:50 2.5ft 8s 6s 2 4 mph 1018mb 84f 83f
6:50 2.5ft 9s 7s 2 4 mph 1017.8mb 84f 83f
5:50 2.5ft 8s 7s  -  mph 1017.5mb 84f 82f
4:50 2.5ft 9s 6s  -  2 mph 1017.2mb 84f 82f
3:50 2.5ft 8s 6s 2
mph
1016.9mb 84f 82f
2:50 2.5ft 8s 6s 4
mph
1016.9mb 84f 82f
1:50 2.5ft 8s 6s 2
mph
1017.4mb 84f 83f
12:50 2.5ft 8s 6s 4
mph
1017.5mb 84f 83f
sam. 07/23 11:50 2.5ft 8s 6s 2 4 mph 1017.8mb 85f 82f
10:50 2.5ft 8s 6s 2 7 mph 1017.5mb 85f 83f
9:50 2.5ft 9s 6s 7
mph
1016.9mb 85f 83f
8:50 2.5ft 9s 6s 7 9 mph 1016.4mb 85f 83f
7:50 2.5ft 8s 6s 7 9 mph 1016.4mb 85f 83f
6:50 3ft 9s 6s 7 9 mph 1016mb 86f 83f
5:50 2.5ft 9s 6s 4 7 mph 1016mb 87f 83f
4:50 2.5ft 9s 6s 4 7 mph 1016.3mb 88f 83f
3:50 2.5ft 8s 6s 2 4 mph 1016.8mb 88f 83f
2:50 2.5ft 8s 6s 2 4 mph 1017.2mb 87f 83f
1:50 2.5ft 8s 6s 4 7 mph 1017.4mb 87f 83f
12:50 2.5ft 7s 6s 2 4 mph 1017.8mb 86f 82f
11:50 2.5ft 8s 6s 4 7 mph 1017.7mb 86f 82f
10:50 2.5ft 8s 6s 2 4 mph 1017.4mb 86f 82f
9:50 2.5ft 8s 7s  -  2 mph 1017.3mb 85f 83f
8:50 2.5ft 9s 7s 2
mph
1017.3mb 84f 83f
7:50 2.5ft 9s 7s 2
mph
1016.9mb 84f 82f
6:50 2.5ft 8s 7s 2
mph
1016.7mb 84f 82f
5:50 2.5ft 9s 7s  -  2 mph 1016.9mb 84f 81f
4:50 2.5ft 8s 7s 4 7 mph 1016.9mb 84f 81f
3:50 2.5ft 9s 7s 4 7 mph 1016.9mb 84f 81f
2:50 3ft 9s 7s 7 9 mph 1016.9mb 85f 82f
1:50 3ft 8s 7s 4 7 mph 1017.1mb 85f 82f
12:50 3ft 9s 7s 4
mph
1017.1mb 85f 82f
ven. 07/22 11:50 3ft 9s 6s 4 7 mph 1017.3mb 86f 83f
10:50 3ft 9s 7s 4 7 mph 1017.5mb 86f 83f
9:50 3ft 8s 6s 2 4 mph 1017.3mb 86f 83f
8:50 3.5ft 8s 7s 4 7 mph 1016.8mb 86f 82f
7:50 3ft 8s 6s 4 9 mph 1016.9mb 86f 82f
6:50 3.5ft 9s 6s 2 7 mph 1016.9mb 86f 83f
5:50 3ft 8s 6s 7 9 mph 1017.5mb 86f 82f
4:50 3.5ft 7s 6s 2
mph
1018mb 87f 83f
3:50 3.5ft 8s 7s 2 4 mph 1018.2mb 88f 83f
2:50 3ft 8s 6s 2 4 mph 1018.8mb 88f 83f
1:50 3ft 8s 7s 2
mph
1019.4mb 87f 83f
12:50 3ft 9s 6s 2
mph
1019.7mb 87f 82f
11:50 3ft 8s 6s 2
mph
1019.4mb 86f 82f
10:50 3ft 9s 6s  -  2 mph 1019.6mb 85f 82f
9:50 3ft 9s 6s 7 9 mph 1019.6mb 84f 80f
8:50 3.5ft 8s 7s 7 9 mph 1019.4mb 84f 82f
7:50 3.5ft 8s 7s 4 9 mph 1018.7mb 84f 82f
6:50 3ft 9s 7s  -  2 mph 1019.1mb 84f 82f
5:50 3ft 8s 7s 4
mph
1018.9mb 84f 82f
4:50 3.5ft 8s 7s 2 4 mph 1018.8mb 84f 82f